Marysville, OH

10:33 AM EST on December 05, 2016 (GMT -0500)
Marysville

Weather History for KMRT - October, 2012

Change the Weather History Date:

Tuesday, October 9, 2012

  Actual Average (KDLZ) Record (KDLZ)
Temperature  
Mean Temperature 46 °F -  
Max Temperature 61 °F 67 °F 89 °F (1939)
Min Temperature 32 °F 42 °F 28 °F (1988)
Degree Days  
Heating Degree Days 18    
Moisture  
Dew Point 35 °F    
Average Humidity 70    
Maximum Humidity 99    
Minimum Humidity 32    
Precipitation  
Precipitation 0.00 in - - ()
Sea Level Pressure  
Sea Level Pressure 30.09 in    
Wind  
Wind Speed 6 mph (SSW)    
Max Wind Speed 16 mph    
Max Gust Speed 21 mph    
Visibility 8 miles    
Events      
Averages and records for this station are not official NWS values.
T = Trace of Precipitation, MM = Missing Value Source: NWS Daily Summary

Daily Weather History Graph

Daily Weather History Graph

Search for Another Location

Airport or City:

Trip Planner

Search our weather history database for the weather conditions in past years. The results will help you decide how hot, cold, wet, or windy it might be!

Date:

Astronomy

Oct. 09, 2012 Rise Set
Actual Time 7:38 AM EDT 7:02 PM EDT
Civil Twilight 7:11 AM EDT 7:29 PM EDT
Nautical Twilight 6:39 AM EDT 8:00 PM EDT
Astronomical Twilight 6:08 AM EDT 8:32 PM EDT
Moon 1:13 AM EDT (10/9) 3:29 PM EDT (10/9)
Length of Visible Light 12h 18m
Length of Day
11h 23m
Last Quarter, 37% of the Moon is Illuminated
Oct 9
Last Quarter
Oct 15
New
Oct 21
First Quarter
Oct 29
Full
Nov 6
Last Quarter

Hourly Weather History & Observations

Time (EDT) Temp. Windchill Dew Point Humidity Pressure Visibility Wind Dir Wind Speed Gust Speed Precip Events Conditions
12:15 AM 39.0 °F 34.8 °F 35.4 °F 87% 30.18 in 10.0 mi SSW 5.8 mph - N/A   Clear
12:34 AM 37.8 °F 35.3 °F 35.1 °F 90% 30.18 in 10.0 mi SW 3.5 mph - N/A   Clear
12:54 AM 36.9 °F 33.1 °F 34.7 °F 92% 30.17 in 10.0 mi SSW 4.6 mph - N/A   Clear
1:15 AM 37.2 °F 33.6 °F 35.2 °F 93% 30.17 in 10.0 mi SSW 4.6 mph - N/A   Clear
1:34 AM 38.1 °F 33.7 °F 36.0 °F 92% 30.17 in 10.0 mi SSW 5.8 mph - N/A   Clear
1:54 AM 37.4 °F 32.8 °F 35.6 °F 93% 30.17 in 7.0 mi SSW 5.8 mph - N/A   Clear
2:15 AM 36.0 °F 33.3 °F 34.2 °F 93% 30.17 in 5.0 mi SW 3.5 mph - N/A   Clear
2:34 AM 34.7 °F 30.6 °F 33.1 °F 94% 30.17 in 5.0 mi SW 4.6 mph - N/A   Clear
2:54 AM 34.9 °F 29.9 °F 33.8 °F 96% 30.17 in 4.0 mi SW 5.8 mph - N/A   Clear
3:14 AM 34.9 °F 30.8 °F 33.8 °F 96% 30.16 in 4.0 mi SW 4.6 mph - N/A   Clear
3:34 AM 34.5 °F - 33.3 °F 95% 30.16 in 4.0 mi Calm Calm - N/A   Clear
3:54 AM 34.0 °F - 32.7 °F 95% 30.16 in 2.0 mi Calm Calm - N/A   Clear
4:14 AM 35.2 °F 32.4 °F 34.2 °F 96% 30.16 in 3.0 mi South 3.5 mph - N/A   Clear
4:34 AM 35.1 °F 32.2 °F 33.8 °F 95% 30.16 in 3.0 mi South 3.5 mph - N/A   Clear
4:54 AM 34.9 °F 32.0 °F 33.8 °F 96% 30.15 in 3.0 mi South 3.5 mph - N/A   Clear
5:14 AM 34.7 °F - 33.4 °F 95% 30.15 in 2.5 mi Calm Calm - N/A   Clear
5:34 AM 33.8 °F 30.8 °F 32.9 °F 96% 30.16 in 2.0 mi South 3.5 mph - N/A   Clear
5:54 AM 34.2 °F 30.0 °F 33.1 °F 96% 30.16 in 1.8 mi South 4.6 mph - N/A   Unknown
6:15 AM 33.8 °F - 32.9 °F 96% 30.15 in 1.5 mi Calm Calm - N/A   Unknown
6:34 AM 33.6 °F - 32.7 °F 96% 30.16 in 1.2 mi Calm Calm - N/A   Mostly Cloudy
6:54 AM 32.4 °F - 32.0 °F 99% 30.17 in 0.2 mi Calm Calm - N/A   Overcast
7:14 AM 33.1 °F - 32.2 °F 96% 30.17 in 0.2 mi Calm Calm - N/A   Overcast
7:34 AM 32.9 °F 28.5 °F 32.0 °F 96% 30.18 in 0.2 mi SSW 4.6 mph - N/A   Overcast
7:55 AM 33.3 °F 30.2 °F 32.4 °F 96% 30.18 in 0.2 mi SSW 3.5 mph - N/A   Overcast
8:14 AM 34.0 °F 29.8 °F 33.3 °F 97% 30.18 in 0.2 mi South 4.6 mph - N/A   Overcast
8:34 AM 34.9 °F 29.9 °F 34.0 °F 97% 30.17 in 0.5 mi South 5.8 mph - N/A   Overcast
8:55 AM 36.9 °F 31.4 °F 36.0 °F 97% 30.17 in 1.5 mi South 6.9 mph - N/A   Overcast
9:14 AM 39.4 °F 34.5 °F 38.5 °F 97% 30.17 in 4.0 mi SSW 6.9 mph - N/A   Scattered Clouds
9:34 AM 41.0 °F 37.1 °F 39.9 °F 96% 30.17 in 10.0 mi SSW 5.8 mph - N/A   Clear
9:55 AM 43.2 °F 39.0 °F 41.4 °F 93% 30.17 in 10.0 mi SSW 6.9 mph - N/A   Clear
10:14 AM 45.5 °F 41.8 °F 39.7 °F 80% 30.17 in 10.0 mi SSW 6.9 mph - N/A   Clear
10:34 AM 47.5 °F - 39.6 °F 74% 30.17 in 10.0 mi SSW 9.2 mph - N/A   Clear
10:55 AM 49.3 °F - 39.4 °F 69% 30.16 in 10.0 mi SSW 9.2 mph - N/A   Clear
11:14 AM 50.2 °F - 39.4 °F 66% 30.16 in 10.0 mi South 9.2 mph - N/A   Clear
11:34 AM 50.9 °F - 39.0 °F 64% 30.15 in 10.0 mi South 10.4 mph - N/A   Clear
11:54 AM 51.6 °F - 39.2 °F 63% 30.15 in 10.0 mi South 10.4 mph - N/A   Clear
12:14 PM 53.8 °F - 38.8 °F 57% 30.14 in 10.0 mi South 12.7 mph 18.4 mph N/A   Clear
12:34 PM 54.7 °F - 37.6 °F 53% 30.13 in 10.0 mi SW 8.1 mph 19.6 mph N/A   Scattered Clouds
12:54 PM 54.1 °F - 37.6 °F 54% 30.12 in 10.0 mi SSW 9.2 mph - N/A   Mostly Cloudy
1:14 PM 56.8 °F - 38.1 °F 50% 30.11 in 10.0 mi South 9.2 mph 20.7 mph N/A   Mostly Cloudy
1:35 PM 57.0 °F - 37.4 °F 48% 30.09 in 10.0 mi SSW 10.4 mph 18.4 mph N/A   Mostly Cloudy
1:54 PM 58.1 °F - 36.0 °F 44% 30.09 in 10.0 mi SW 10.4 mph 20.7 mph N/A   Mostly Cloudy
2:14 PM 59.0 °F - 35.8 °F 42% 30.07 in 10.0 mi SW 11.5 mph 17.3 mph N/A   Scattered Clouds
2:35 PM 59.2 °F - 34.2 °F 39% 30.06 in 10.0 mi SW 13.8 mph 20.7 mph N/A   Scattered Clouds
2:54 PM 60.3 °F - 33.6 °F 37% 30.05 in 10.0 mi SSW 11.5 mph - N/A   Clear
3:14 PM 60.3 °F - 32.7 °F 35% 30.05 in 10.0 mi SW 16.1 mph 19.6 mph N/A   Clear
3:35 PM 60.8 °F - 31.8 °F 34% 30.03 in 10.0 mi SSW 12.7 mph 16.1 mph N/A   Clear
3:54 PM 61.2 °F - 31.8 °F 33% 30.03 in 10.0 mi SSW 15.0 mph 19.6 mph N/A   Clear
4:14 PM 61.2 °F - 31.3 °F 32% 30.02 in 10.0 mi SW 12.7 mph - N/A   Clear
4:34 PM 61.3 °F - 31.6 °F 33% 30.02 in 10.0 mi SW 11.5 mph 18.4 mph N/A   Clear
4:54 PM 61.2 °F - 31.1 °F 32% 30.01 in 10.0 mi SW 16.1 mph 19.6 mph N/A   Clear
5:14 PM 60.8 °F - 30.9 °F 32% 30.00 in 10.0 mi SSW 11.5 mph - N/A   Clear
5:34 PM 60.6 °F - 30.9 °F 33% 30.00 in 10.0 mi SSW 12.7 mph - N/A   Clear
5:54 PM 59.9 °F - 31.3 °F 34% 30.00 in 10.0 mi South 10.4 mph - N/A   Clear
6:14 PM 59.0 °F - 31.3 °F 35% 30.00 in 10.0 mi SSW 11.5 mph 16.1 mph N/A   Clear
6:34 PM 57.7 °F - 31.5 °F 37% 30.00 in 10.0 mi SSW 8.1 mph - N/A   Clear
6:55 PM 55.8 °F - 32.0 °F 41% 29.99 in 10.0 mi South 8.1 mph - N/A   Clear
7:14 PM 53.6 °F - 33.3 °F 46% 29.99 in 10.0 mi SSW 8.1 mph - N/A   Clear
7:34 PM 51.8 °F - 33.8 °F 50% 29.99 in 10.0 mi South 6.9 mph - N/A   Clear
7:54 PM 52.2 °F - 35.1 °F 52% 29.99 in 10.0 mi South 9.2 mph - N/A   Clear
8:14 PM 51.3 °F - 35.6 °F 55% 29.99 in 10.0 mi South 8.1 mph - N/A   Clear
8:35 PM 50.2 °F - 35.6 °F 57% 30.00 in 10.0 mi South 10.4 mph - N/A   Clear
8:54 PM 48.6 °F - 35.6 °F 61% 30.00 in 10.0 mi South 6.9 mph - N/A   Clear
9:14 PM 47.7 °F - 35.6 °F 63% 30.00 in 10.0 mi South 9.2 mph - N/A   Clear
9:35 PM 47.5 °F - 35.2 °F 63% 30.00 in 10.0 mi South 8.1 mph - N/A   Clear
9:54 PM 46.8 °F - 35.2 °F 64% 30.00 in 10.0 mi South 8.1 mph - N/A   Clear
10:14 PM 46.0 °F 41.9 °F 34.9 °F 65% 30.00 in 10.0 mi SSW 8.1 mph - N/A   Clear
10:35 PM 45.7 °F 42.7 °F 34.9 °F 66% 30.00 in 10.0 mi SSW 5.8 mph - N/A   Clear
10:54 PM 45.3 °F 40.6 °F 34.9 °F 67% 29.99 in 10.0 mi SSW 9.2 mph - N/A   Clear
11:14 PM 45.1 °F 41.4 °F 35.2 °F 68% 29.98 in 10.0 mi SSW 6.9 mph - N/A   Clear
11:35 PM 44.6 °F 40.7 °F 35.6 °F 71% 29.97 in 10.0 mi SSW 6.9 mph - N/A   Clear
11:54 PM 43.9 °F 39.3 °F 35.8 °F 73% 29.96 in 10.0 mi SSW 8.1 mph - N/A   Clear